Tadcaster, United Kingdom
Current Conditions -  °F | °C
As of 4:50 PM on Sunday 21 Dec 2014 (Local Time) from EGXU Reporting Station
Broken Clouds Broken Clouds  
Wind Chill: 54°   Ceiling: 2200
Heat Index: 54°   Visibility: 6mi
Dew Point: 52°   Wind: 14mph
Humidity: 94%   Direction: 210°SSW
Pressure: 29.88"   Gusts: NA
Location:  53.88°N, 1.26°W
Report Text: EGXU 211650Z AUTO 21012KT 9999 // BKN022/// 12/11 Q1012
Loading
Personal Weather Stations






























Interactive Weather Map New forecast layout! Learn more

10-Day Weather Forecast

Advertisements
Track Severe Weather on mobile